createdAt,value
2023-04-15T00:01:32.953Z,79339.06
2023-04-15T00:03:14.495Z,79351.94
2023-04-15T00:04:56.029Z,79347.56
2023-04-15T00:06:37.347Z,79342.22
2023-04-15T00:08:18.671Z,79346.22
2023-04-15T00:10:00.008Z,79347.44
2023-04-15T00:11:41.310Z,79352.25
2023-04-15T00:13:22.588Z,79346.38
2023-04-15T00:15:03.936Z,79343.19
2023-04-15T00:16:45.286Z,79342.81
2023-04-15T00:18:26.576Z,79349.84
2023-04-15T00:20:07.895Z,79341.81
2023-04-15T00:21:49.198Z,79339.94
2023-04-15T00:23:30.556Z,79345.59
2023-04-15T00:25:11.903Z,79340.19
2023-04-15T00:26:53.232Z,79339.94
2023-04-15T00:28:34.498Z,79339.53
2023-04-15T00:30:15.771Z,79338.22
2023-04-15T00:31:57.082Z,79334.47
2023-04-15T00:33:38.354Z,79347.06
2023-04-15T00:35:19.667Z,79345.97
2023-04-15T00:37:01.000Z,79347.78
2023-04-15T00:38:42.307Z,79344.06
2023-04-15T00:40:23.569Z,79348.66
2023-04-15T00:42:04.867Z,79336.91
2023-04-15T00:43:46.165Z,79343.16
2023-04-15T00:45:27.454Z,79344.13
2023-04-15T00:47:08.791Z,79345.13
2023-04-15T00:48:50.075Z,79342.72
2023-04-15T00:50:31.358Z,79345.63
2023-04-15T00:52:12.686Z,79344.38
2023-04-15T00:53:53.936Z,79343.16
2023-04-15T00:55:35.220Z,79339.91
2023-04-15T00:57:16.536Z,79339.63
2023-04-15T00:58:57.887Z,79337.66
2023-04-15T01:00:39.246Z,79334.91
2023-04-15T01:02:20.590Z,79336.66
2023-04-15T01:04:02.102Z,79338.28
2023-04-15T01:05:43.552Z,79341.63
2023-04-15T01:07:24.851Z,79340.13
2023-04-15T01:09:06.108Z,79334.41
2023-04-15T01:10:47.405Z,79336.59
2023-04-15T01:12:28.706Z,79339.34
2023-04-15T01:14:09.992Z,79348.25
2023-04-15T01:15:51.338Z,79340.88
2023-04-15T01:17:32.717Z,79349.28
2023-04-15T01:19:14.026Z,79342.91
2023-04-15T01:20:55.352Z,79348.91
2023-04-15T01:22:36.619Z,79341.66
2023-04-15T01:24:17.882Z,79333.41
2023-04-15T01:25:59.241Z,79335.09
2023-04-15T01:27:40.576Z,79338.38
2023-04-15T01:29:21.849Z,79329.66
2023-04-15T01:31:03.131Z,79331.63
2023-04-15T01:32:44.455Z,79326.03
2023-04-15T01:34:25.789Z,79321.44
2023-04-15T01:36:07.096Z,79326.09
2023-04-15T01:37:48.405Z,79320.31
2023-04-15T01:39:29.702Z,79322.22
2023-04-15T01:41:10.998Z,79315.72
2023-04-15T01:42:52.311Z,79316.66
2023-04-15T01:44:33.591Z,79308.13
2023-04-15T01:46:14.895Z,79317.31
2023-04-15T01:47:56.379Z,79322.41
2023-04-15T01:49:37.688Z,79314.34
2023-04-15T01:51:18.987Z,79313.22
2023-04-15T01:53:00.273Z,79309.78
2023-04-15T01:54:41.557Z,79321.84
2023-04-15T01:56:22.860Z,79306.59
2023-04-15T01:58:04.185Z,79303.13
2023-04-15T01:59:45.536Z,79309.50
2023-04-15T02:01:26.998Z,79312.50
2023-04-15T02:03:08.424Z,79317.22
2023-04-15T02:04:49.759Z,79317.09
2023-04-15T02:06:31.030Z,79307.81
2023-04-15T02:08:12.295Z,79312.25
2023-04-15T02:09:53.581Z,79312.16
2023-04-15T02:11:34.908Z,79309.94
2023-04-15T02:13:16.217Z,79312.53
2023-04-15T02:14:57.511Z,79319.38
2023-04-15T02:16:38.890Z,79319.56
2023-04-15T02:18:20.261Z,79322.38
2023-04-15T02:20:01.552Z,79314.25
2023-04-15T02:21:42.984Z,79308.38
2023-04-15T02:23:24.259Z,79308.81
2023-04-15T02:25:05.580Z,79305.19
2023-04-15T02:26:46.892Z,79307.72
2023-04-15T02:28:28.182Z,79308.47
2023-04-15T02:30:09.521Z,79314.44
2023-04-15T02:31:50.870Z,79309.50
2023-04-15T02:33:32.266Z,79311.19
2023-04-15T02:35:13.590Z,79308.03
2023-04-15T02:36:54.952Z,79311.00
2023-04-15T02:38:36.213Z,79315.31
2023-04-15T02:40:17.548Z,79305.44
2023-04-15T02:41:58.906Z,79307.56
2023-04-15T02:43:40.186Z,79309.22
2023-04-15T02:45:21.438Z,79301.84
2023-04-15T02:47:02.712Z,79305.72
2023-04-15T02:48:44.030Z,79302.28
2023-04-15T02:50:25.310Z,79302.94
2023-04-15T02:52:06.654Z,79296.91
2023-04-15T02:53:47.999Z,79300.69
2023-04-15T02:55:29.294Z,79301.22
2023-04-15T02:57:10.602Z,79300.34
2023-04-15T02:58:51.908Z,79306.41
2023-04-15T03:00:33.164Z,79298.34
2023-04-15T03:02:14.535Z,79300.66
2023-04-15T03:03:56.078Z,79306.84
2023-04-15T03:05:37.397Z,79303.41
2023-04-15T03:07:18.662Z,79299.41
2023-04-15T03:09:00.224Z,79303.13
2023-04-15T03:10:41.650Z,79304.72
2023-04-15T03:12:22.915Z,79300.84
2023-04-15T03:14:04.244Z,79307.28
2023-04-15T03:15:45.561Z,79308.59
2023-04-15T03:17:26.895Z,79305.91
2023-04-15T03:19:08.187Z,79312.53
2023-04-15T03:20:49.537Z,79305.63
2023-04-15T03:22:30.826Z,79298.91
2023-04-15T03:24:12.128Z,79299.25
2023-04-15T03:25:53.437Z,79302.31
2023-04-15T03:27:34.718Z,79307.59
2023-04-15T03:29:16.023Z,79307.47
2023-04-15T03:30:57.421Z,79306.69
2023-04-15T03:32:38.740Z,79305.34
2023-04-15T03:34:20.130Z,79304.66
2023-04-15T03:36:01.467Z,79300.38
2023-04-15T03:37:42.738Z,79304.31
2023-04-15T03:39:24.022Z,79297.28
2023-04-15T03:41:05.319Z,79292.81
2023-04-15T03:42:46.614Z,79303.38
2023-04-15T03:44:27.921Z,79304.38
2023-04-15T03:46:09.296Z,79305.88
2023-04-15T03:47:50.634Z,79294.66
2023-04-15T03:49:31.971Z,79301.47
2023-04-15T03:51:13.253Z,79300.84
2023-04-15T03:52:54.520Z,79302.34
2023-04-15T03:54:35.827Z,79298.69
2023-04-15T03:56:17.105Z,79290.50
2023-04-15T03:57:58.391Z,79307.09
2023-04-15T03:59:39.682Z,79302.53
2023-04-15T04:01:20.987Z,79301.09
2023-04-15T04:03:02.499Z,79301.94
2023-04-15T04:04:43.913Z,79304.38
2023-04-15T04:06:25.253Z,79304.88
2023-04-15T04:08:06.572Z,79302.16
2023-04-15T04:09:47.852Z,79298.41
2023-04-15T04:11:29.108Z,79299.44
2023-04-15T04:13:10.436Z,79300.28
2023-04-15T04:14:51.772Z,79301.13
2023-04-15T04:16:33.187Z,79303.50
2023-04-15T04:18:14.557Z,79303.38
2023-04-15T04:19:55.871Z,79301.34
2023-04-15T04:21:37.185Z,79301.91
2023-04-15T04:23:18.505Z,79304.16
2023-04-15T04:24:59.795Z,79311.81
2023-04-15T04:26:41.076Z,79302.19
2023-04-15T04:28:22.341Z,79304.19
2023-04-15T04:30:03.612Z,79313.84
2023-04-15T04:31:44.950Z,79307.84
2023-04-15T04:33:26.284Z,79313.66
2023-04-15T04:35:07.584Z,79312.44
2023-04-15T04:36:48.981Z,79298.50
2023-04-15T04:38:30.244Z,79304.13
2023-04-15T04:40:11.514Z,79302.84
2023-04-15T04:41:52.872Z,79314.28
2023-04-15T04:43:34.160Z,79310.13
2023-04-15T04:45:15.502Z,79317.22
2023-04-15T04:46:56.873Z,79311.09
2023-04-15T04:48:38.204Z,79303.69
2023-04-15T04:50:19.480Z,79295.59
2023-04-15T04:52:00.815Z,79296.00
2023-04-15T04:53:42.128Z,79304.22
2023-04-15T04:55:23.421Z,79308.97
2023-04-15T04:57:04.698Z,79307.91
2023-04-15T04:58:46.012Z,79305.31
2023-04-15T05:00:27.307Z,79304.16
2023-04-15T05:02:08.694Z,79300.78
2023-04-15T05:03:50.144Z,79313.41
2023-04-15T05:05:31.496Z,79310.03
2023-04-15T05:07:12.812Z,79310.66
2023-04-15T05:08:54.114Z,79313.25
2023-04-15T05:10:35.409Z,79302.41
2023-04-15T05:12:16.734Z,79321.03
2023-04-15T05:13:58.007Z,79323.09
2023-04-15T05:15:39.325Z,79324.75
2023-04-15T05:17:20.625Z,79328.38
2023-04-15T05:19:02.111Z,79317.44
2023-04-15T05:20:43.646Z,79317.09
2023-04-15T05:22:24.938Z,79313.97
2023-04-15T05:24:06.228Z,79315.78
2023-04-15T05:25:47.513Z,79324.19
2023-04-15T05:27:28.852Z,79325.53
2023-04-15T05:29:10.123Z,79334.09
2023-04-15T05:30:51.412Z,79322.31
2023-04-15T05:32:32.764Z,79321.41
2023-04-15T05:34:14.106Z,79313.63
2023-04-15T05:35:55.394Z,79323.00
2023-04-15T05:37:36.748Z,79320.72
2023-04-15T05:39:18.036Z,79319.84
2023-04-15T05:40:59.295Z,79319.66
2023-04-15T05:42:40.608Z,79319.47
2023-04-15T05:44:21.858Z,79315.00
2023-04-15T05:46:03.209Z,79316.31
2023-04-15T05:47:44.683Z,79313.84
2023-04-15T05:49:26.032Z,79312.06
2023-04-15T05:51:07.304Z,79307.81
2023-04-15T05:52:48.621Z,79314.66
2023-04-15T05:54:29.929Z,79317.69
2023-04-15T05:56:11.232Z,79311.19
2023-04-15T05:57:52.557Z,79312.66
2023-04-15T05:59:33.871Z,79316.69
2023-04-15T06:01:15.182Z,79317.91
2023-04-15T06:02:56.555Z,79316.94
2023-04-15T06:04:38.041Z,79309.13
2023-04-15T06:06:19.425Z,79319.25
2023-04-15T06:08:00.720Z,79309.81
2023-04-15T06:09:42.002Z,79305.16
2023-04-15T06:11:23.326Z,79306.88
2023-04-15T06:13:04.599Z,79303.94
2023-04-15T06:14:45.947Z,79305.25
2023-04-15T06:16:27.265Z,79298.84
2023-04-15T06:18:08.637Z,79308.97
2023-04-15T06:19:50.027Z,79302.50
2023-04-15T06:21:31.351Z,79301.53
2023-04-15T06:23:12.673Z,79301.56
2023-04-15T06:24:53.955Z,79296.28
2023-04-15T06:26:35.257Z,79299.84
2023-04-15T06:28:16.574Z,79298.47
2023-04-15T06:29:58.044Z,79309.09
2023-04-15T06:31:39.381Z,79295.22
2023-04-15T06:33:20.724Z,79302.72
2023-04-15T06:35:01.991Z,79296.03
2023-04-15T06:36:43.453Z,79297.78
2023-04-15T06:38:24.784Z,79292.41
2023-04-15T06:40:06.076Z,79293.09
2023-04-15T06:41:47.352Z,79297.88
2023-04-15T06:43:28.633Z,79293.31
2023-04-15T06:45:09.969Z,79306.22
2023-04-15T06:46:51.254Z,79299.72
2023-04-15T06:48:32.589Z,79301.13
2023-04-15T06:50:13.911Z,79308.03
2023-04-15T06:51:55.271Z,79304.06
2023-04-15T06:53:36.556Z,79301.53
2023-04-15T06:55:17.831Z,79289.09
2023-04-15T06:56:59.105Z,79287.38
2023-04-15T06:58:40.411Z,79291.91
2023-04-15T07:00:21.707Z,79291.28
2023-04-15T07:02:03.035Z,79293.53
2023-04-15T07:03:44.980Z,79298.34
2023-04-15T07:05:26.638Z,79293.81
2023-04-15T07:07:07.962Z,79293.31
2023-04-15T07:08:49.270Z,79295.94
2023-04-15T07:10:30.571Z,79284.44
2023-04-15T07:12:11.891Z,79291.59
2023-04-15T07:13:53.223Z,79285.22
2023-04-15T07:15:34.554Z,79276.81
2023-04-15T07:17:15.867Z,79275.59
2023-04-15T07:18:57.174Z,79278.72
2023-04-15T07:20:38.504Z,79285.59
2023-04-15T07:22:19.878Z,79285.72
2023-04-15T07:24:01.162Z,79284.84
2023-04-15T07:25:42.453Z,79283.19
2023-04-15T07:27:23.732Z,79285.13
2023-04-15T07:29:04.992Z,79275.16
2023-04-15T07:30:46.365Z,79280.13
2023-04-15T07:32:27.737Z,79278.34
2023-04-15T07:34:09.072Z,79278.47
2023-04-15T07:35:50.338Z,79275.03
2023-04-15T07:37:31.632Z,79279.09
2023-04-15T07:39:12.927Z,79275.50
2023-04-15T07:40:54.232Z,79268.09
2023-04-15T07:42:35.641Z,79267.63
2023-04-15T07:44:16.963Z,79257.16
2023-04-15T07:45:58.328Z,79264.59
2023-04-15T07:47:39.676Z,79254.91
2023-04-15T07:49:20.939Z,79260.78
2023-04-15T07:51:02.248Z,79255.75
2023-04-15T07:52:43.543Z,79251.44
2023-04-15T07:54:24.835Z,79264.06
2023-04-15T07:56:06.125Z,79260.94
2023-04-15T07:57:47.462Z,79257.88
2023-04-15T07:59:28.780Z,79252.75
2023-04-15T08:01:10.071Z,79254.25
2023-04-15T08:02:51.527Z,79254.63
2023-04-15T08:04:33.019Z,79257.91
2023-04-15T08:06:14.394Z,79252.44
2023-04-15T08:07:55.824Z,79246.59
2023-04-15T08:09:37.325Z,79246.03
2023-04-15T08:11:18.712Z,79246.06
2023-04-15T08:13:00.164Z,79249.81
2023-04-15T08:14:41.439Z,79254.16
2023-04-15T08:16:22.872Z,79257.03
2023-04-15T08:18:04.457Z,79252.94
2023-04-15T08:19:45.962Z,79246.50
2023-04-15T08:21:27.239Z,79253.22
2023-04-15T08:23:08.555Z,79247.09
2023-04-15T08:24:49.867Z,79246.59
2023-04-15T08:26:31.541Z,79237.78
2023-04-15T08:28:13.056Z,79243.16
2023-04-15T08:29:54.366Z,79242.94
2023-04-15T08:31:35.648Z,79242.69
2023-04-15T08:33:17.364Z,79247.81
2023-04-15T08:34:58.868Z,79247.28
2023-04-15T08:36:40.156Z,79251.84
2023-04-15T08:38:21.455Z,79254.34
2023-04-15T08:40:02.750Z,79258.84
2023-04-15T08:41:44.038Z,79257.63
2023-04-15T08:43:25.324Z,79261.31
2023-04-15T08:45:06.670Z,79265.72
2023-04-15T08:46:48.098Z,79266.00
2023-04-15T08:48:29.484Z,79263.78
2023-04-15T08:50:10.873Z,79266.47
2023-04-15T08:51:52.179Z,79265.13
2023-04-15T08:53:33.477Z,79262.13
2023-04-15T08:55:14.770Z,79279.47
2023-04-15T08:56:56.098Z,79273.84
2023-04-15T08:58:37.476Z,79277.94
2023-04-15T09:00:18.777Z,79283.06
2023-04-15T09:02:00.200Z,79280.56
2023-04-15T09:03:41.619Z,79286.66
2023-04-15T09:05:22.981Z,79287.44
2023-04-15T09:07:04.299Z,79290.41
2023-04-15T09:08:45.623Z,79298.13
2023-04-15T09:10:26.927Z,79293.44
2023-04-15T09:12:08.435Z,79292.84
2023-04-15T09:13:49.755Z,79295.16
2023-04-15T09:15:31.049Z,79296.41
2023-04-15T09:17:12.360Z,79296.81
2023-04-15T09:18:53.692Z,79295.81
2023-04-15T09:20:35.040Z,79311.25
2023-04-15T09:22:16.364Z,79309.16
2023-04-15T09:23:57.680Z,79317.59
2023-04-15T09:25:38.983Z,79315.47
2023-04-15T09:27:20.257Z,79318.97
2023-04-15T09:29:01.572Z,79316.50
2023-04-15T09:30:42.880Z,79316.59
2023-04-15T09:32:24.217Z,79321.00
2023-04-15T09:34:05.539Z,79325.25
2023-04-15T09:35:46.866Z,79325.44
2023-04-15T09:37:32.406Z,79328.91
2023-04-15T09:39:14.000Z,79323.94
2023-04-15T09:40:55.317Z,79326.38
2023-04-15T09:42:36.649Z,79327.78
2023-04-15T09:44:17.913Z,79331.94
2023-04-15T09:45:59.223Z,79327.50
2023-04-15T09:47:40.652Z,79334.00
2023-04-15T09:49:21.999Z,79333.72
2023-04-15T09:51:03.295Z,79325.25
2023-04-15T09:52:44.610Z,79340.09
2023-04-15T09:54:25.940Z,79332.00
2023-04-15T09:56:07.247Z,79337.41
2023-04-15T09:57:48.619Z,79332.94
2023-04-15T09:59:30.012Z,79339.88
2023-04-15T10:01:11.332Z,79334.88
2023-04-15T10:02:52.871Z,79330.94
2023-04-15T10:04:34.337Z,79336.22
2023-04-15T10:06:15.636Z,79338.50
2023-04-15T10:07:56.964Z,79334.63
2023-04-15T10:09:38.270Z,79346.69
2023-04-15T10:11:19.553Z,79352.63
2023-04-15T10:13:00.872Z,79358.44
2023-04-15T10:14:42.133Z,79361.84
2023-04-15T10:16:23.468Z,79352.50
2023-04-15T10:18:04.942Z,79362.16
2023-04-15T10:19:46.279Z,79350.13
2023-04-15T10:21:27.540Z,79362.53
2023-04-15T10:23:10.984Z,79355.69
2023-04-15T10:24:53.480Z,79360.75
2023-04-15T10:26:34.780Z,79358.72
2023-04-15T10:28:16.088Z,79363.66
2023-04-15T10:29:57.421Z,79357.78
2023-04-15T10:31:38.719Z,79358.44
2023-04-15T10:33:20.041Z,79362.38
2023-04-15T10:35:01.353Z,79367.03
2023-04-15T10:36:42.636Z,79367.97
2023-04-15T10:38:23.924Z,79369.81
2023-04-15T10:40:05.213Z,79361.31
2023-04-15T10:41:46.482Z,79366.63
2023-04-15T10:43:27.762Z,79362.38
2023-04-15T10:45:09.054Z,79362.88
2023-04-15T10:46:50.465Z,79360.53
2023-04-15T10:48:31.808Z,79361.31
2023-04-15T10:50:13.127Z,79348.50
2023-04-15T10:51:54.456Z,79363.47
2023-04-15T10:53:35.716Z,79364.97
2023-04-15T10:55:16.999Z,79354.38
2023-04-15T10:56:58.293Z,79358.69
2023-04-15T10:58:39.569Z,79369.06
2023-04-15T11:00:20.858Z,79373.53
2023-04-15T11:02:02.250Z,79369.38
2023-04-15T11:03:43.875Z,79378.84
2023-04-15T11:05:25.420Z,79380.78
2023-04-15T11:07:06.715Z,79379.44
2023-04-15T11:08:48.122Z,79377.13
2023-04-15T11:10:29.459Z,79378.84
2023-04-15T11:12:10.788Z,79383.50
2023-04-15T11:13:52.111Z,79385.16
2023-04-15T11:15:33.407Z,79383.03
2023-04-15T11:17:14.665Z,79379.63
2023-04-15T11:18:56.007Z,79377.25
2023-04-15T11:20:37.349Z,79375.47
2023-04-15T11:22:18.636Z,79390.78
2023-04-15T11:24:00.771Z,79384.34
2023-04-15T11:25:43.913Z,79384.81
2023-04-15T11:27:25.479Z,79380.88
2023-04-15T11:29:06.778Z,79382.34
2023-04-15T11:30:48.061Z,79383.91
2023-04-15T11:32:29.435Z,79383.91
2023-04-15T11:34:10.817Z,79378.53
2023-04-15T11:35:52.211Z,79387.50
2023-04-15T11:37:33.495Z,79380.72
2023-04-15T11:39:14.811Z,79379.00
2023-04-15T11:40:56.119Z,79381.72
2023-04-15T11:42:48.724Z,79381.53
2023-04-15T11:44:31.121Z,79369.63
2023-04-15T11:46:12.466Z,79383.13
2023-04-15T11:47:53.767Z,79389.84
2023-04-15T11:49:35.062Z,79386.75
2023-04-15T11:51:16.415Z,79397.69
2023-04-15T11:52:57.685Z,79395.81
2023-04-15T11:54:38.999Z,79397.03
2023-04-15T11:56:20.291Z,79397.75
2023-04-15T11:58:01.581Z,79400.38
2023-04-15T11:59:45.520Z,79404.06
2023-04-15T12:01:27.396Z,79410.88
2023-04-15T12:03:08.815Z,79409.66
2023-04-15T12:04:50.372Z,79411.69
2023-04-15T12:06:31.697Z,79415.63
2023-04-15T12:08:12.982Z,79417.66
2023-04-15T12:09:54.254Z,79411.41
2023-04-15T12:11:35.555Z,79412.50
2023-04-15T12:13:16.865Z,79424.31
2023-04-15T12:14:58.164Z,79419.88
2023-04-15T12:16:48.015Z,79423.00
2023-04-15T12:18:30.959Z,79418.63
2023-04-15T12:20:13.369Z,79429.56
2023-04-15T12:21:54.662Z,79426.53
2023-04-15T12:23:35.935Z,79427.50
2023-04-15T12:25:17.201Z,79429.47
2023-04-15T12:26:58.579Z,79430.63
2023-04-15T12:28:39.836Z,79431.91
2023-04-15T12:30:21.231Z,79434.53
2023-04-15T12:32:02.531Z,79437.03
2023-04-15T12:33:43.907Z,79440.16
2023-04-15T12:35:25.202Z,79434.69
2023-04-15T12:37:06.512Z,79436.75
2023-04-15T12:38:47.832Z,79444.53
2023-04-15T12:40:29.155Z,79442.97
2023-04-15T12:42:10.467Z,79447.69
2023-04-15T12:43:51.740Z,79453.47
2023-04-15T12:45:32.988Z,79451.47
2023-04-15T12:47:14.324Z,79464.34
2023-04-15T12:48:55.614Z,79458.22
2023-04-15T12:50:36.889Z,79457.84
2023-04-15T12:52:18.218Z,79461.69
2023-04-15T12:53:59.512Z,79461.75
2023-04-15T12:55:40.819Z,79482.28
2023-04-15T12:57:22.154Z,79477.28
2023-04-15T12:59:03.449Z,79482.19
2023-04-15T13:00:44.770Z,79483.47
2023-04-15T13:02:26.227Z,79487.16
2023-04-15T13:04:07.944Z,79492.72
2023-04-15T13:05:49.679Z,79492.97
2023-04-15T13:07:31.059Z,79499.53
2023-04-15T13:09:12.437Z,79494.97
2023-04-15T13:10:53.759Z,79498.59
2023-04-15T13:12:35.038Z,79499.69
2023-04-15T13:14:16.323Z,79513.47
2023-04-15T13:15:57.670Z,79502.28
2023-04-15T13:17:39.013Z,79502.59
2023-04-15T13:19:20.330Z,79507.16
2023-04-15T13:21:02.219Z,79506.63
2023-04-15T13:22:44.577Z,79507.53
2023-04-15T13:24:25.892Z,79511.38
2023-04-15T13:26:07.192Z,79519.16
2023-04-15T13:27:48.476Z,79515.81
2023-04-15T13:29:29.728Z,79514.97
2023-04-15T13:31:11.071Z,79524.19
2023-04-15T13:32:52.428Z,79518.84
2023-04-15T13:34:33.743Z,79518.34
2023-04-15T13:36:15.020Z,79525.25
2023-04-15T13:37:56.308Z,79523.75
2023-04-15T13:39:37.600Z,79526.72
2023-04-15T13:41:18.940Z,79530.19
2023-04-15T13:43:00.272Z,79531.41
2023-04-15T13:44:41.559Z,79532.56
2023-04-15T13:46:22.921Z,79525.44
2023-04-15T13:48:04.277Z,79525.38
2023-04-15T13:49:45.542Z,79531.34
2023-04-15T13:51:26.816Z,79530.06
2023-04-15T13:53:08.226Z,79529.41
2023-04-15T13:54:49.555Z,79536.50
2023-04-15T13:56:50.836Z,79527.91
2023-04-15T13:58:32.122Z,79539.22
2023-04-15T14:00:13.427Z,79533.06
2023-04-15T14:01:54.828Z,79539.28
2023-04-15T14:03:36.757Z,79541.50
2023-04-15T14:05:18.431Z,79542.69
2023-04-15T14:06:59.747Z,79545.63
2023-04-15T14:08:41.074Z,79540.06
2023-04-15T14:10:22.377Z,79546.13
2023-04-15T14:12:03.643Z,79548.47
2023-04-15T14:13:44.924Z,79552.78
2023-04-15T14:15:26.253Z,79550.56
2023-04-15T14:17:07.550Z,79552.19
2023-04-15T14:18:48.870Z,79550.19
2023-04-15T14:20:30.169Z,79559.91
2023-04-15T14:22:11.444Z,79556.03
2023-04-15T14:23:52.709Z,79558.44
2023-04-15T14:25:34.368Z,79558.06
2023-04-15T14:27:15.789Z,79562.09
2023-04-15T14:28:57.110Z,79561.88
2023-04-15T14:30:38.456Z,79560.56
2023-04-15T14:32:19.876Z,79569.25
2023-04-15T14:34:01.234Z,79579.53
2023-04-15T14:35:42.543Z,79583.41
2023-04-15T14:37:23.850Z,79588.22
2023-04-15T14:39:05.707Z,79592.19
2023-04-15T14:40:47.301Z,79587.00
2023-04-15T14:42:28.615Z,79590.53
2023-04-15T14:44:10.319Z,79602.28
2023-04-15T14:45:51.675Z,79594.41
2023-04-15T14:47:33.022Z,79604.59
2023-04-15T14:49:14.368Z,79597.66
2023-04-15T14:50:55.691Z,79592.31
2023-04-15T14:52:36.978Z,79601.09
2023-04-15T14:54:18.738Z,79593.59
2023-04-15T14:56:00.703Z,79604.09
2023-04-15T14:57:41.962Z,79606.22
2023-04-15T14:59:23.260Z,79599.75
2023-04-15T15:01:04.570Z,79603.78
2023-04-15T15:02:46.054Z,79611.13
2023-04-15T15:04:27.524Z,79607.53
2023-04-15T15:06:08.964Z,79618.47
2023-04-15T15:07:50.237Z,79617.25
2023-04-15T15:09:32.826Z,79624.53
2023-04-15T15:11:15.205Z,79618.06
2023-04-15T15:12:56.546Z,79617.31
2023-04-15T15:14:37.836Z,79626.06
2023-04-15T15:16:19.173Z,79621.31
2023-04-15T15:18:00.618Z,79623.44
2023-04-15T15:19:41.911Z,79632.34
2023-04-15T15:21:23.244Z,79633.06
2023-04-15T15:23:04.532Z,79635.66
2023-04-15T15:24:45.800Z,79632.88
2023-04-15T15:26:27.061Z,79639.81
2023-04-15T15:28:08.385Z,79639.03
2023-04-15T15:29:49.674Z,79646.22
2023-04-15T15:31:31.039Z,79644.59
2023-04-15T15:33:12.388Z,79652.91
2023-04-15T15:34:53.733Z,79647.50
2023-04-15T15:36:34.993Z,79649.41
2023-04-15T15:38:16.292Z,79648.75
2023-04-15T15:39:57.571Z,79658.06
2023-04-15T15:41:38.872Z,79647.84
2023-04-15T15:43:20.176Z,79653.75
2023-04-15T15:45:01.453Z,79652.78
2023-04-15T15:46:43.062Z,79657.84
2023-04-15T15:48:24.430Z,79655.16
2023-04-15T15:50:06.392Z,79662.69
2023-04-15T15:51:47.831Z,79655.41
2023-04-15T15:53:29.151Z,79655.81
2023-04-15T15:55:10.488Z,79672.69
2023-04-15T15:56:51.844Z,79667.09
2023-04-15T15:58:33.144Z,79660.16
2023-04-15T16:00:14.487Z,79660.06
2023-04-15T16:01:55.908Z,79671.88
2023-04-15T16:03:37.532Z,79667.41
2023-04-15T16:05:19.063Z,79664.38
2023-04-15T16:07:00.402Z,79668.97
2023-04-15T16:08:41.709Z,79670.31
2023-04-15T16:10:23.254Z,79681.75
2023-04-15T16:12:04.890Z,79686.31
2023-04-15T16:13:46.183Z,79681.31
2023-04-15T16:15:27.494Z,79691.03
2023-04-15T16:17:08.793Z,79696.47
2023-04-15T16:18:50.148Z,79691.00
2023-04-15T16:20:31.431Z,79694.44
2023-04-15T16:22:12.742Z,79699.63
2023-04-15T16:23:53.992Z,79703.25
2023-04-15T16:25:35.301Z,79707.47
2023-04-15T16:27:16.602Z,79707.47
2023-04-15T16:28:57.912Z,79707.38
2023-04-15T16:30:39.248Z,79707.66
2023-04-15T16:32:20.648Z,79709.53
2023-04-15T16:34:02.003Z,79717.81
2023-04-15T16:35:43.286Z,79709.34
2023-04-15T16:37:24.569Z,79712.34
2023-04-15T16:39:06.100Z,79709.47
2023-04-15T16:40:47.668Z,79725.78
2023-04-15T16:42:28.973Z,79716.75
2023-04-15T16:44:10.288Z,79725.31
2023-04-15T16:45:51.793Z,79724.19
2023-04-15T16:47:33.201Z,79731.44
2023-04-15T16:49:14.500Z,79728.84
2023-04-15T16:50:55.793Z,79728.84
2023-04-15T16:52:37.070Z,79730.28
2023-04-15T16:54:18.365Z,79729.78
2023-04-15T16:55:59.671Z,79738.78
2023-04-15T16:58:01.573Z,79740.47
2023-04-15T16:59:42.224Z,79741.53
2023-04-15T17:01:23.554Z,79744.97
2023-04-15T17:03:04.995Z,79742.94
2023-04-15T17:04:46.368Z,79745.28
2023-04-15T17:06:27.680Z,79745.38
2023-04-15T17:08:09.002Z,79750.66
2023-04-15T17:09:50.300Z,79753.13
2023-04-15T17:11:31.586Z,79752.59
2023-04-15T17:13:12.874Z,79758.78
2023-04-15T17:14:54.154Z,79759.50
2023-04-15T17:16:35.462Z,79764.25
2023-04-15T17:18:16.726Z,79766.03
2023-04-15T17:19:58.010Z,79770.88
2023-04-15T17:21:39.343Z,79770.78
2023-04-15T17:23:20.619Z,79784.66
2023-04-15T17:25:01.913Z,79775.41
2023-04-15T17:26:43.223Z,79783.19
2023-04-15T17:28:24.515Z,79788.44
2023-04-15T17:30:05.804Z,79788.41
2023-04-15T17:31:47.140Z,79788.31
2023-04-15T17:34:00.212Z,79795.16
2023-04-15T17:35:29.680Z,79789.47
2023-04-15T17:37:10.999Z,79800.25
2023-04-15T17:38:52.273Z,79809.19
2023-04-15T17:40:33.573Z,79797.63
2023-04-15T17:42:14.865Z,79799.19
2023-04-15T17:43:56.164Z,79802.53
2023-04-15T17:45:37.479Z,79797.75
2023-04-15T17:47:19.021Z,79805.59
2023-04-15T17:49:00.608Z,79814.03
2023-04-15T17:50:41.932Z,79818.66
2023-04-15T17:52:23.292Z,79811.03
2023-04-15T17:54:04.718Z,79816.31
2023-04-15T17:55:46.185Z,79815.78
2023-04-15T17:57:27.503Z,79821.47
2023-04-15T17:59:08.981Z,79826.56
2023-04-15T18:00:50.321Z,79822.94
2023-04-15T18:02:32.757Z,79827.72
2023-04-15T18:04:15.994Z,79827.09
2023-04-15T18:05:57.341Z,79822.50
2023-04-15T18:07:38.923Z,79826.72
2023-04-15T18:09:20.448Z,79831.72
2023-04-15T18:11:01.741Z,79837.53
2023-04-15T18:12:43.044Z,79836.88
2023-04-15T18:14:33.554Z,79836.28
2023-04-15T18:16:16.176Z,79841.78
2023-04-15T18:17:57.487Z,79853.69
2023-04-15T18:19:38.796Z,79855.13
2023-04-15T18:21:20.093Z,79855.72
2023-04-15T18:23:01.447Z,79861.63
2023-04-15T18:24:42.853Z,79860.56
2023-04-15T18:26:24.140Z,79868.13
2023-04-15T18:28:05.435Z,79866.22
2023-04-15T18:29:46.756Z,79875.78
2023-04-15T18:31:28.065Z,79881.06
2023-04-15T18:33:09.400Z,79881.72
2023-04-15T18:34:50.709Z,79887.72
2023-04-15T18:36:31.988Z,79889.19
2023-04-15T18:38:13.247Z,79886.19
2023-04-15T18:39:54.551Z,79898.34
2023-04-15T18:41:35.839Z,79900.81
2023-04-15T18:43:17.136Z,79899.81
2023-04-15T18:44:58.437Z,79902.09
2023-04-15T18:46:39.718Z,79897.81
2023-04-15T18:48:21.028Z,79904.28
2023-04-15T18:50:02.487Z,79904.19
2023-04-15T18:51:44.008Z,79915.47
2023-04-15T18:53:25.381Z,79917.59
2023-04-15T18:55:06.686Z,79924.28
2023-04-15T18:56:48.022Z,79926.03
2023-04-15T18:58:29.331Z,79927.31
2023-04-15T19:00:30.633Z,79935.16
2023-04-15T19:02:12.056Z,79936.63
2023-04-15T19:03:53.510Z,79937.81
2023-04-15T19:05:34.814Z,79930.97
2023-04-15T19:07:16.121Z,79935.13
2023-04-15T19:08:57.403Z,79940.47
2023-04-15T19:10:38.685Z,79948.88
2023-04-15T19:12:19.966Z,79951.38
2023-04-15T19:14:01.251Z,79952.91
2023-04-15T19:15:42.565Z,79956.72
2023-04-15T19:17:23.901Z,79952.66
2023-04-15T19:19:05.497Z,79962.44
2023-04-15T19:20:46.878Z,79960.88
2023-04-15T19:22:28.183Z,79967.91
2023-04-15T19:24:09.519Z,79968.69
2023-04-15T19:25:50.904Z,79971.34
2023-04-15T19:27:32.223Z,79963.91
2023-04-15T19:29:13.551Z,79964.81
2023-04-15T19:30:54.957Z,79967.66
2023-04-15T19:32:36.485Z,79975.00
2023-04-15T19:34:17.818Z,79979.09
2023-04-15T19:35:59.110Z,79976.97
2023-04-15T19:37:40.378Z,79980.34
2023-04-15T19:39:21.698Z,79991.97
2023-04-15T19:41:03.024Z,80000.34
2023-04-15T19:42:44.314Z,79990.31
2023-04-15T19:44:25.630Z,79995.13
2023-04-15T19:46:07.020Z,79994.41
2023-04-15T19:47:48.392Z,80000.38
2023-04-15T19:49:29.716Z,80002.88
2023-04-15T19:51:11.029Z,80003.13
2023-04-15T19:52:52.359Z,80004.31